sensor_id;sensor_type;location;lat;lon;timestamp;temperature;humidity
47414;DHT22;33163;0.000;0.000;2022-09-13T00:00:32;22.70;72.70
47414;DHT22;33163;0.000;0.000;2022-09-13T00:03:00;22.70;72.70
47414;DHT22;33163;0.000;0.000;2022-09-13T00:05:27;22.70;72.70
47414;DHT22;33163;0.000;0.000;2022-09-13T00:07:54;22.70;72.70
47414;DHT22;33163;0.000;0.000;2022-09-13T00:10:22;22.70;72.80
47414;DHT22;33163;0.000;0.000;2022-09-13T00:12:49;22.70;72.80
47414;DHT22;33163;0.000;0.000;2022-09-13T00:15:18;22.70;72.80
47414;DHT22;33163;0.000;0.000;2022-09-13T00:17:45;22.70;72.80
47414;DHT22;33163;0.000;0.000;2022-09-13T00:20:12;22.70;72.80
47414;DHT22;33163;0.000;0.000;2022-09-13T00:22:39;22.70;72.80
47414;DHT22;33163;0.000;0.000;2022-09-13T00:25:06;22.70;72.90
47414;DHT22;33163;0.000;0.000;2022-09-13T00:27:34;22.70;72.90
47414;DHT22;33163;0.000;0.000;2022-09-13T00:30:01;22.70;72.90
47414;DHT22;33163;0.000;0.000;2022-09-13T00:32:29;22.70;72.90
47414;DHT22;33163;0.000;0.000;2022-09-13T00:34:56;22.70;72.90
47414;DHT22;33163;0.000;0.000;2022-09-13T00:37:23;22.70;73.00
47414;DHT22;33163;0.000;0.000;2022-09-13T00:39:49;22.70;73.00
47414;DHT22;33163;0.000;0.000;2022-09-13T00:42:16;22.70;73.00
47414;DHT22;33163;0.000;0.000;2022-09-13T00:44:53;22.70;73.00
47414;DHT22;33163;0.000;0.000;2022-09-13T00:47:25;22.70;73.00
47414;DHT22;33163;0.000;0.000;2022-09-13T00:49:57;22.70;73.00
47414;DHT22;33163;0.000;0.000;2022-09-13T00:52:27;22.70;73.00
47414;DHT22;33163;0.000;0.000;2022-09-13T00:54:57;22.70;73.00
47414;DHT22;33163;0.000;0.000;2022-09-13T00:57:25;22.70;73.00
47414;DHT22;33163;0.000;0.000;2022-09-13T00:59:57;22.70;73.00
47414;DHT22;33163;0.000;0.000;2022-09-13T01:02:25;22.70;73.00
47414;DHT22;33163;0.000;0.000;2022-09-13T01:04:54;22.70;73.00
47414;DHT22;33163;0.000;0.000;2022-09-13T01:07:21;22.70;73.10
47414;DHT22;33163;0.000;0.000;2022-09-13T01:09:49;22.70;73.10
47414;DHT22;33163;0.000;0.000;2022-09-13T01:12:24;22.70;73.10
47414;DHT22;33163;0.000;0.000;2022-09-13T01:14:56;22.70;73.10
47414;DHT22;33163;0.000;0.000;2022-09-13T01:17:27;22.70;73.10
47414;DHT22;33163;0.000;0.000;2022-09-13T01:19:55;22.70;73.20
47414;DHT22;33163;0.000;0.000;2022-09-13T01:26:03;22.70;73.20
47414;DHT22;33163;0.000;0.000;2022-09-13T01:31:38;22.70;73.30
47414;DHT22;33163;0.000;0.000;2022-09-13T01:34:15;22.70;73.30
47414;DHT22;33163;0.000;0.000;2022-09-13T01:40:01;22.70;73.30
47414;DHT22;33163;0.000;0.000;2022-09-13T01:42:40;22.70;73.40
47414;DHT22;33163;0.000;0.000;2022-09-13T01:45:22;22.60;73.30
47414;DHT22;33163;0.000;0.000;2022-09-13T01:47:53;22.70;73.30
47414;DHT22;33163;0.000;0.000;2022-09-13T01:50:32;22.70;73.40
47414;DHT22;33163;0.000;0.000;2022-09-13T01:53:04;22.70;73.40
47414;DHT22;33163;0.000;0.000;2022-09-13T01:55:38;22.70;73.40
47414;DHT22;33163;0.000;0.000;2022-09-13T01:58:15;22.70;73.40
47414;DHT22;33163;0.000;0.000;2022-09-13T02:00:50;22.70;73.40
47414;DHT22;33163;0.000;0.000;2022-09-13T02:03:25;22.70;73.40
47414;DHT22;33163;0.000;0.000;2022-09-13T02:05:57;22.70;73.40
47414;DHT22;33163;0.000;0.000;2022-09-13T02:08:31;22.70;73.40
47414;DHT22;33163;0.000;0.000;2022-09-13T02:11:03;22.70;73.50
47414;DHT22;33163;0.000;0.000;2022-09-13T02:13:35;22.70;73.50
47414;DHT22;33163;0.000;0.000;2022-09-13T02:16:07;22.70;73.60
47414;DHT22;33163;0.000;0.000;2022-09-13T02:18:39;22.70;73.60
47414;DHT22;33163;0.000;0.000;2022-09-13T02:21:09;22.70;73.70
47414;DHT22;33163;0.000;0.000;2022-09-13T02:23:42;22.70;73.70
47414;DHT22;33163;0.000;0.000;2022-09-13T02:26:11;22.70;73.70
47414;DHT22;33163;0.000;0.000;2022-09-13T02:28:43;22.70;73.80
47414;DHT22;33163;0.000;0.000;2022-09-13T02:31:12;22.70;73.80
47414;DHT22;33163;0.000;0.000;2022-09-13T02:33:44;22.70;73.80
47414;DHT22;33163;0.000;0.000;2022-09-13T02:36:16;22.70;73.80
47414;DHT22;33163;0.000;0.000;2022-09-13T02:38:49;22.70;73.90
47414;DHT22;33163;0.000;0.000;2022-09-13T02:41:20;22.70;74.00
47414;DHT22;33163;0.000;0.000;2022-09-13T02:43:56;22.70;74.60
47414;DHT22;33163;0.000;0.000;2022-09-13T02:46:41;22.70;74.00
47414;DHT22;33163;0.000;0.000;2022-09-13T02:49:14;22.70;74.00
47414;DHT22;33163;0.000;0.000;2022-09-13T02:51:45;22.70;74.00
47414;DHT22;33163;0.000;0.000;2022-09-13T02:54:24;22.70;74.00
47414;DHT22;33163;0.000;0.000;2022-09-13T02:56:57;22.70;74.00
47414;DHT22;33163;0.000;0.000;2022-09-13T02:59:25;22.70;74.00
47414;DHT22;33163;0.000;0.000;2022-09-13T03:01:57;22.70;74.10
47414;DHT22;33163;0.000;0.000;2022-09-13T03:04:26;22.70;74.00
47414;DHT22;33163;0.000;0.000;2022-09-13T03:06:54;22.70;74.00
47414;DHT22;33163;0.000;0.000;2022-09-13T03:09:21;22.70;74.00
47414;DHT22;33163;0.000;0.000;2022-09-13T03:12:03;22.70;74.10
47414;DHT22;33163;0.000;0.000;2022-09-13T03:14:39;22.70;74.10
47414;DHT22;33163;0.000;0.000;2022-09-13T03:17:14;22.70;74.10
47414;DHT22;33163;0.000;0.000;2022-09-13T03:20:00;22.70;74.10
47414;DHT22;33163;0.000;0.000;2022-09-13T03:22:51;22.70;74.10
47414;DHT22;33163;0.000;0.000;2022-09-13T03:25:29;22.70;74.10
47414;DHT22;33163;0.000;0.000;2022-09-13T03:28:05;22.70;74.10
47414;DHT22;33163;0.000;0.000;2022-09-13T03:30:36;22.70;74.10
47414;DHT22;33163;0.000;0.000;2022-09-13T03:33:09;22.70;74.10
47414;DHT22;33163;0.000;0.000;2022-09-13T03:35:40;22.70;74.10
47414;DHT22;33163;0.000;0.000;2022-09-13T03:38:11;22.70;74.00
47414;DHT22;33163;0.000;0.000;2022-09-13T03:40:42;22.70;74.00
47414;DHT22;33163;0.000;0.000;2022-09-13T03:43:13;22.70;74.00
47414;DHT22;33163;0.000;0.000;2022-09-13T03:45:44;22.70;74.00
47414;DHT22;33163;0.000;0.000;2022-09-13T03:48:12;22.70;74.00
47414;DHT22;33163;0.000;0.000;2022-09-13T03:50:41;22.70;74.00
47414;DHT22;33163;0.000;0.000;2022-09-13T03:53:14;22.70;74.00
47414;DHT22;33163;0.000;0.000;2022-09-13T03:55:42;22.70;74.00
47414;DHT22;33163;0.000;0.000;2022-09-13T03:58:11;22.70;73.90
47414;DHT22;33163;0.000;0.000;2022-09-13T04:00:38;22.70;74.00
47414;DHT22;33163;0.000;0.000;2022-09-13T04:03:05;22.70;73.90
47414;DHT22;33163;0.000;0.000;2022-09-13T04:05:32;22.70;74.60
47414;DHT22;33163;0.000;0.000;2022-09-13T04:08:01;22.70;73.90
47414;DHT22;33163;0.000;0.000;2022-09-13T04:10:30;22.70;73.80
47414;DHT22;33163;0.000;0.000;2022-09-13T04:12:57;22.70;73.80
47414;DHT22;33163;0.000;0.000;2022-09-13T04:15:24;22.70;73.70
47414;DHT22;33163;0.000;0.000;2022-09-13T04:17:51;22.70;73.70
47414;DHT22;33163;0.000;0.000;2022-09-13T04:20:18;22.70;74.00
47414;DHT22;33163;0.000;0.000;2022-09-13T04:22:50;22.70;73.60
47414;DHT22;33163;0.000;0.000;2022-09-13T04:25:18;22.70;73.60
47414;DHT22;33163;0.000;0.000;2022-09-13T04:27:46;22.70;73.60
47414;DHT22;33163;0.000;0.000;2022-09-13T04:30:13;22.70;73.60
47414;DHT22;33163;0.000;0.000;2022-09-13T04:32:41;22.70;73.60
47414;DHT22;33163;0.000;0.000;2022-09-13T04:35:09;22.70;73.60
47414;DHT22;33163;0.000;0.000;2022-09-13T04:37:36;22.70;73.60
47414;DHT22;33163;0.000;0.000;2022-09-13T04:40:04;22.70;73.90
47414;DHT22;33163;0.000;0.000;2022-09-13T04:42:33;22.70;73.90
47414;DHT22;33163;0.000;0.000;2022-09-13T04:45:00;22.70;73.80
47414;DHT22;33163;0.000;0.000;2022-09-13T04:47:26;22.70;73.70
47414;DHT22;33163;0.000;0.000;2022-09-13T04:49:53;22.70;73.70
47414;DHT22;33163;0.000;0.000;2022-09-13T04:52:20;22.70;73.80
47414;DHT22;33163;0.000;0.000;2022-09-13T04:54:47;22.70;73.70
47414;DHT22;33163;0.000;0.000;2022-09-13T04:57:14;22.70;73.70
47414;DHT22;33163;0.000;0.000;2022-09-13T04:59:42;22.70;73.70
47414;DHT22;33163;0.000;0.000;2022-09-13T05:02:09;22.70;73.70
47414;DHT22;33163;0.000;0.000;2022-09-13T05:04:36;22.70;73.80
47414;DHT22;33163;0.000;0.000;2022-09-13T05:07:03;22.70;73.90
47414;DHT22;33163;0.000;0.000;2022-09-13T05:09:30;22.70;73.90
47414;DHT22;33163;0.000;0.000;2022-09-13T05:11:57;22.70;73.70
47414;DHT22;33163;0.000;0.000;2022-09-13T05:14:24;22.70;73.80
47414;DHT22;33163;0.000;0.000;2022-09-13T05:16:52;22.70;73.80
47414;DHT22;33163;0.000;0.000;2022-09-13T05:19:19;22.70;74.00
47414;DHT22;33163;0.000;0.000;2022-09-13T05:21:46;22.70;74.10
47414;DHT22;33163;0.000;0.000;2022-09-13T05:24:13;22.60;74.10
47414;DHT22;33163;0.000;0.000;2022-09-13T05:26:39;22.60;74.30
47414;DHT22;33163;0.000;0.000;2022-09-13T05:29:06;22.60;74.30
47414;DHT22;33163;0.000;0.000;2022-09-13T05:31:34;22.70;74.70
47414;DHT22;33163;0.000;0.000;2022-09-13T05:34:05;22.60;74.80
47414;DHT22;33163;0.000;0.000;2022-09-13T05:36:33;22.60;74.70
47414;DHT22;33163;0.000;0.000;2022-09-13T05:38:59;22.60;75.10
47414;DHT22;33163;0.000;0.000;2022-09-13T05:41:26;22.50;76.10
47414;DHT22;33163;0.000;0.000;2022-09-13T05:43:53;22.50;76.90
47414;DHT22;33163;0.000;0.000;2022-09-13T05:46:20;22.40;77.50
47414;DHT22;33163;0.000;0.000;2022-09-13T05:48:48;22.40;77.80
47414;DHT22;33163;0.000;0.000;2022-09-13T05:51:18;22.40;77.90
47414;DHT22;33163;0.000;0.000;2022-09-13T05:53:46;22.40;78.00
47414;DHT22;33163;0.000;0.000;2022-09-13T05:56:15;22.40;78.00
47414;DHT22;33163;0.000;0.000;2022-09-13T05:58:44;22.30;78.30
47414;DHT22;33163;0.000;0.000;2022-09-13T06:01:13;22.30;78.50
47414;DHT22;33163;0.000;0.000;2022-09-13T06:03:40;22.40;78.60
47414;DHT22;33163;0.000;0.000;2022-09-13T06:06:09;22.30;78.50
47414;DHT22;33163;0.000;0.000;2022-09-13T06:08:37;22.30;78.70
47414;DHT22;33163;0.000;0.000;2022-09-13T06:11:06;22.30;78.70
47414;DHT22;33163;0.000;0.000;2022-09-13T06:13:33;22.30;78.40
47414;DHT22;33163;0.000;0.000;2022-09-13T06:16:01;22.30;78.10
47414;DHT22;33163;0.000;0.000;2022-09-13T06:18:28;22.30;77.90
47414;DHT22;33163;0.000;0.000;2022-09-13T06:20:59;22.40;78.10
47414;DHT22;33163;0.000;0.000;2022-09-13T06:23:27;22.40;78.10
47414;DHT22;33163;0.000;0.000;2022-09-13T06:26:02;22.40;78.10
47414;DHT22;33163;0.000;0.000;2022-09-13T06:28:29;22.40;78.10
47414;DHT22;33163;0.000;0.000;2022-09-13T06:31:00;22.40;78.00
47414;DHT22;33163;0.000;0.000;2022-09-13T06:33:27;22.40;78.00
47414;DHT22;33163;0.000;0.000;2022-09-13T06:35:54;22.40;77.90
47414;DHT22;33163;0.000;0.000;2022-09-13T06:38:21;22.40;78.00
47414;DHT22;33163;0.000;0.000;2022-09-13T06:40:57;22.50;78.10
47414;DHT22;33163;0.000;0.000;2022-09-13T06:43:27;22.50;78.30
47414;DHT22;33163;0.000;0.000;2022-09-13T06:45:58;22.50;78.40
47414;DHT22;33163;0.000;0.000;2022-09-13T06:48:26;22.50;78.30
47414;DHT22;33163;0.000;0.000;2022-09-13T06:50:57;22.50;78.40
47414;DHT22;33163;0.000;0.000;2022-09-13T06:53:24;22.50;78.70
47414;DHT22;33163;0.000;0.000;2022-09-13T06:56:00;22.60;78.00
47414;DHT22;33163;0.000;0.000;2022-09-13T06:58:29;22.60;78.00
47414;DHT22;33163;0.000;0.000;2022-09-13T07:01:05;22.60;78.00
47414;DHT22;33163;0.000;0.000;2022-09-13T07:03:37;22.60;77.90
47414;DHT22;33163;0.000;0.000;2022-09-13T07:06:11;22.70;78.10
47414;DHT22;33163;0.000;0.000;2022-09-13T07:08:39;22.70;78.00
47414;DHT22;33163;0.000;0.000;2022-09-13T07:11:06;22.70;78.00
47414;DHT22;33163;0.000;0.000;2022-09-13T07:13:35;22.70;77.90
47414;DHT22;33163;0.000;0.000;2022-09-13T07:16:04;22.70;77.70
47414;DHT22;33163;0.000;0.000;2022-09-13T07:18:31;22.70;77.60
47414;DHT22;33163;0.000;0.000;2022-09-13T07:20:59;22.70;77.50
47414;DHT22;33163;0.000;0.000;2022-09-13T07:23:26;22.70;77.80
47414;DHT22;33163;0.000;0.000;2022-09-13T07:25:54;22.70;78.20
47414;DHT22;33163;0.000;0.000;2022-09-13T07:28:27;22.70;78.20
47414;DHT22;33163;0.000;0.000;2022-09-13T07:30:57;22.70;78.20
47414;DHT22;33163;0.000;0.000;2022-09-13T07:33:29;22.70;78.20
47414;DHT22;33163;0.000;0.000;2022-09-13T07:35:56;22.70;78.00
47414;DHT22;33163;0.000;0.000;2022-09-13T07:38:24;22.70;77.90
47414;DHT22;33163;0.000;0.000;2022-09-13T07:40:54;22.70;77.80
47414;DHT22;33163;0.000;0.000;2022-09-13T07:43:22;22.70;77.60
47414;DHT22;33163;0.000;0.000;2022-09-13T07:45:57;22.80;77.60
47414;DHT22;33163;0.000;0.000;2022-09-13T07:48:24;22.80;77.40
47414;DHT22;33163;0.000;0.000;2022-09-13T07:50:59;22.70;77.30
47414;DHT22;33163;0.000;0.000;2022-09-13T07:53:26;22.80;77.30
47414;DHT22;33163;0.000;0.000;2022-09-13T07:55:53;22.80;77.20
47414;DHT22;33163;0.000;0.000;2022-09-13T07:58:20;22.80;77.50
47414;DHT22;33163;0.000;0.000;2022-09-13T08:00:46;22.80;77.70
47414;DHT22;33163;0.000;0.000;2022-09-13T08:03:14;22.80;77.50
47414;DHT22;33163;0.000;0.000;2022-09-13T08:05:41;22.80;77.50
47414;DHT22;33163;0.000;0.000;2022-09-13T08:08:08;22.80;77.60
47414;DHT22;33163;0.000;0.000;2022-09-13T08:10:35;22.90;77.60
47414;DHT22;33163;0.000;0.000;2022-09-13T08:13:02;22.90;77.50
47414;DHT22;33163;0.000;0.000;2022-09-13T08:15:29;22.90;77.20
47414;DHT22;33163;0.000;0.000;2022-09-13T08:17:55;22.90;77.10
47414;DHT22;33163;0.000;0.000;2022-09-13T08:20:24;22.90;77.10
47414;DHT22;33163;0.000;0.000;2022-09-13T08:22:53;23.00;77.10
47414;DHT22;33163;0.000;0.000;2022-09-13T08:25:20;23.00;77.10
47414;DHT22;33163;0.000;0.000;2022-09-13T08:27:47;23.00;77.20
47414;DHT22;33163;0.000;0.000;2022-09-13T08:30:14;22.90;77.20
47414;DHT22;33163;0.000;0.000;2022-09-13T08:32:40;22.90;77.30
47414;DHT22;33163;0.000;0.000;2022-09-13T08:35:07;22.90;77.10
47414;DHT22;33163;0.000;0.000;2022-09-13T08:37:35;22.90;77.20
47414;DHT22;33163;0.000;0.000;2022-09-13T08:40:02;22.90;77.30
47414;DHT22;33163;0.000;0.000;2022-09-13T08:42:45;22.90;77.20
47414;DHT22;33163;0.000;0.000;2022-09-13T08:45:14;22.90;77.20
47414;DHT22;33163;0.000;0.000;2022-09-13T08:47:45;22.90;77.20
47414;DHT22;33163;0.000;0.000;2022-09-13T08:50:17;22.90;77.10
47414;DHT22;33163;0.000;0.000;2022-09-13T08:52:54;22.90;77.20
47414;DHT22;33163;0.000;0.000;2022-09-13T08:55:27;22.90;77.10
47414;DHT22;33163;0.000;0.000;2022-09-13T08:58:00;22.90;77.00
47414;DHT22;33163;0.000;0.000;2022-09-13T09:00:33;22.90;77.00
47414;DHT22;33163;0.000;0.000;2022-09-13T09:03:09;22.90;77.00
47414;DHT22;33163;0.000;0.000;2022-09-13T09:05:44;22.90;77.70
47414;DHT22;33163;0.000;0.000;2022-09-13T09:08:27;22.90;77.00
47414;DHT22;33163;0.000;0.000;2022-09-13T09:10:58;23.00;77.00
47414;DHT22;33163;0.000;0.000;2022-09-13T09:13:29;23.00;76.90
47414;DHT22;33163;0.000;0.000;2022-09-13T09:15:59;23.00;77.00
47414;DHT22;33163;0.000;0.000;2022-09-13T09:18:29;23.00;77.00
47414;DHT22;33163;0.000;0.000;2022-09-13T09:21:00;23.00;76.90
47414;DHT22;33163;0.000;0.000;2022-09-13T09:23:34;23.00;76.90
47414;DHT22;33163;0.000;0.000;2022-09-13T09:26:14;23.00;76.90
47414;DHT22;33163;0.000;0.000;2022-09-13T09:28:42;23.00;76.70
47414;DHT22;33163;0.000;0.000;2022-09-13T09:31:14;23.10;76.70
47414;DHT22;33163;0.000;0.000;2022-09-13T09:33:56;23.10;76.70
47414;DHT22;33163;0.000;0.000;2022-09-13T09:36:34;23.10;76.60
47414;DHT22;33163;0.000;0.000;2022-09-13T09:39:05;23.10;76.80
47414;DHT22;33163;0.000;0.000;2022-09-13T09:41:33;23.10;76.60
47414;DHT22;33163;0.000;0.000;2022-09-13T09:44:13;23.10;76.60
47414;DHT22;33163;0.000;0.000;2022-09-13T09:46:43;23.10;76.50
47414;DHT22;33163;0.000;0.000;2022-09-13T09:49:15;23.10;76.50
47414;DHT22;33163;0.000;0.000;2022-09-13T09:52:01;23.20;76.40
47414;DHT22;33163;0.000;0.000;2022-09-13T09:54:33;23.20;76.30
47414;DHT22;33163;0.000;0.000;2022-09-13T09:57:00;23.20;76.20
47414;DHT22;33163;0.000;0.000;2022-09-13T09:59:29;23.20;76.20
47414;DHT22;33163;0.000;0.000;2022-09-13T10:01:58;23.20;76.10
47414;DHT22;33163;0.000;0.000;2022-09-13T10:04:27;23.30;76.10
47414;DHT22;33163;0.000;0.000;2022-09-13T10:07:09;23.30;76.10
47414;DHT22;33163;0.000;0.000;2022-09-13T10:09:38;23.30;76.00
47414;DHT22;33163;0.000;0.000;2022-09-13T10:12:05;23.30;75.90
47414;DHT22;33163;0.000;0.000;2022-09-13T10:14:38;23.30;75.90
47414;DHT22;33163;0.000;0.000;2022-09-13T10:17:17;23.30;75.90
47414;DHT22;33163;0.000;0.000;2022-09-13T10:19:54;23.40;75.90
47414;DHT22;33163;0.000;0.000;2022-09-13T10:22:23;23.40;75.80
47414;DHT22;33163;0.000;0.000;2022-09-13T10:24:51;23.40;75.70
47414;DHT22;33163;0.000;0.000;2022-09-13T10:27:24;23.40;75.70
47414;DHT22;33163;0.000;0.000;2022-09-13T10:29:55;23.40;75.60
47414;DHT22;33163;0.000;0.000;2022-09-13T10:32:24;23.50;75.50
47414;DHT22;33163;0.000;0.000;2022-09-13T10:34:52;23.50;75.50
47414;DHT22;33163;0.000;0.000;2022-09-13T10:37:21;23.50;75.50
47414;DHT22;33163;0.000;0.000;2022-09-13T10:39:57;23.50;75.60
47414;DHT22;33163;0.000;0.000;2022-09-13T10:42:27;23.50;75.60
47414;DHT22;33163;0.000;0.000;2022-09-13T10:44:57;23.50;75.60
47414;DHT22;33163;0.000;0.000;2022-09-13T10:47:28;23.50;75.60
47414;DHT22;33163;0.000;0.000;2022-09-13T10:50:10;23.50;75.60
47414;DHT22;33163;0.000;0.000;2022-09-13T10:52:42;23.50;75.70
47414;DHT22;33163;0.000;0.000;2022-09-13T10:58:18;23.50;75.60
47414;DHT22;33163;0.000;0.000;2022-09-13T11:07:10;23.50;75.40
47414;DHT22;33163;0.000;0.000;2022-09-13T11:09:44;23.50;75.50
47414;DHT22;33163;0.000;0.000;2022-09-13T11:12:19;23.60;75.40
47414;DHT22;33163;0.000;0.000;2022-09-13T11:14:57;23.60;75.40
47414;DHT22;33163;0.000;0.000;2022-09-13T11:17:39;23.60;75.40
47414;DHT22;33163;0.000;0.000;2022-09-13T11:20:19;23.60;75.50
47414;DHT22;33163;0.000;0.000;2022-09-13T11:23:07;23.60;75.40
47414;DHT22;33163;0.000;0.000;2022-09-13T11:25:54;23.60;75.30
47414;DHT22;33163;0.000;0.000;2022-09-13T11:28:32;23.60;75.40
47414;DHT22;33163;0.000;0.000;2022-09-13T11:31:15;23.60;75.20
47414;DHT22;33163;0.000;0.000;2022-09-13T11:33:54;23.60;75.10
47414;DHT22;33163;0.000;0.000;2022-09-13T11:36:34;23.60;75.10
47414;DHT22;33163;0.000;0.000;2022-09-13T11:39:15;23.60;75.30
47414;DHT22;33163;0.000;0.000;2022-09-13T11:41:50;23.60;75.10
47414;DHT22;33163;0.000;0.000;2022-09-13T11:44:49;23.60;75.10
47414;DHT22;33163;0.000;0.000;2022-09-13T11:47:29;23.60;75.00
47414;DHT22;33163;0.000;0.000;2022-09-13T11:50:12;23.60;74.90
47414;DHT22;33163;0.000;0.000;2022-09-13T11:52:52;23.60;74.80
47414;DHT22;33163;0.000;0.000;2022-09-13T11:55:29;23.60;74.80
47414;DHT22;33163;0.000;0.000;2022-09-13T11:58:00;23.60;74.80
47414;DHT22;33163;0.000;0.000;2022-09-13T12:00:33;23.60;74.60
47414;DHT22;33163;0.000;0.000;2022-09-13T12:03:11;23.60;74.50
47414;DHT22;33163;0.000;0.000;2022-09-13T12:05:43;23.60;74.50
47414;DHT22;33163;0.000;0.000;2022-09-13T12:08:17;23.60;74.50
47414;DHT22;33163;0.000;0.000;2022-09-13T12:10:48;23.60;74.40
47414;DHT22;33163;0.000;0.000;2022-09-13T12:13:19;23.60;74.40
47414;DHT22;33163;0.000;0.000;2022-09-13T12:15:51;23.60;74.50
47414;DHT22;33163;0.000;0.000;2022-09-13T12:18:22;23.60;74.50
47414;DHT22;33163;0.000;0.000;2022-09-13T12:20:51;23.60;74.40
47414;DHT22;33163;0.000;0.000;2022-09-13T12:23:22;23.60;74.40
47414;DHT22;33163;0.000;0.000;2022-09-13T12:25:55;23.60;74.50
47414;DHT22;33163;0.000;0.000;2022-09-13T12:28:26;23.70;74.50
47414;DHT22;33163;0.000;0.000;2022-09-13T12:30:58;23.60;74.50
47414;DHT22;33163;0.000;0.000;2022-09-13T12:33:27;23.60;74.50
47414;DHT22;33163;0.000;0.000;2022-09-13T12:36:06;23.60;74.50
47414;DHT22;33163;0.000;0.000;2022-09-13T12:38:56;23.70;74.60
47414;DHT22;33163;0.000;0.000;2022-09-13T12:41:39;23.60;74.30
47414;DHT22;33163;0.000;0.000;2022-09-13T12:47:27;23.70;74.30
47414;DHT22;33163;0.000;0.000;2022-09-13T12:50:18;23.70;74.40
47414;DHT22;33163;0.000;0.000;2022-09-13T12:52:52;23.70;74.60
47414;DHT22;33163;0.000;0.000;2022-09-13T12:58:46;23.70;74.40
47414;DHT22;33163;0.000;0.000;2022-09-13T13:01:18;23.70;74.40
47414;DHT22;33163;0.000;0.000;2022-09-13T13:03:50;23.70;74.50
47414;DHT22;33163;0.000;0.000;2022-09-13T13:06:26;23.70;74.40
47414;DHT22;33163;0.000;0.000;2022-09-13T13:08:55;23.70;74.40
47414;DHT22;33163;0.000;0.000;2022-09-13T13:11:24;23.70;74.50
47414;DHT22;33163;0.000;0.000;2022-09-13T13:13:55;23.70;74.40
47414;DHT22;33163;0.000;0.000;2022-09-13T13:16:29;23.70;74.40
47414;DHT22;33163;0.000;0.000;2022-09-13T13:18:58;23.70;74.30
47414;DHT22;33163;0.000;0.000;2022-09-13T13:21:31;23.70;74.40
47414;DHT22;33163;0.000;0.000;2022-09-13T13:33:19;23.70;74.20
47414;DHT22;33163;0.000;0.000;2022-09-13T13:35:47;23.70;74.20
47414;DHT22;33163;0.000;0.000;2022-09-13T13:38:30;23.60;74.20
47414;DHT22;33163;0.000;0.000;2022-09-13T13:41:06;23.60;74.20
47414;DHT22;33163;0.000;0.000;2022-09-13T13:43:34;23.60;74.20
47414;DHT22;33163;0.000;0.000;2022-09-13T13:46:24;23.60;74.10
47414;DHT22;33163;0.000;0.000;2022-09-13T13:48:52;23.60;73.90
47414;DHT22;33163;0.000;0.000;2022-09-13T13:51:22;23.60;74.10
47414;DHT22;33163;0.000;0.000;2022-09-13T13:53:58;23.60;73.90
47414;DHT22;33163;0.000;0.000;2022-09-13T13:59:18;23.60;73.80
47414;DHT22;33163;0.000;0.000;2022-09-13T14:01:50;23.60;73.80
47414;DHT22;33163;0.000;0.000;2022-09-13T14:04:46;23.60;73.70
47414;DHT22;33163;0.000;0.000;2022-09-13T14:10:15;23.60;73.60
47414;DHT22;33163;0.000;0.000;2022-09-13T14:12:54;23.60;73.60
47414;DHT22;33163;0.000;0.000;2022-09-13T14:15:34;23.60;73.60
47414;DHT22;33163;0.000;0.000;2022-09-13T14:21:21;23.60;73.30
47414;DHT22;33163;0.000;0.000;2022-09-13T14:23:49;23.60;73.30
47414;DHT22;33163;0.000;0.000;2022-09-13T14:26:18;23.60;73.30
47414;DHT22;33163;0.000;0.000;2022-09-13T14:28:44;23.60;73.30
47414;DHT22;33163;0.000;0.000;2022-09-13T14:31:17;23.60;73.20
47414;DHT22;33163;0.000;0.000;2022-09-13T14:33:45;23.60;73.10
47414;DHT22;33163;0.000;0.000;2022-09-13T14:36:17;23.60;73.20
47414;DHT22;33163;0.000;0.000;2022-09-13T14:38:50;23.60;73.00
47414;DHT22;33163;0.000;0.000;2022-09-13T14:41:19;23.60;72.90
47414;DHT22;33163;0.000;0.000;2022-09-13T14:43:48;23.60;72.90
47414;DHT22;33163;0.000;0.000;2022-09-13T14:46:19;23.60;72.90
47414;DHT22;33163;0.000;0.000;2022-09-13T14:48:49;23.60;72.70
47414;DHT22;33163;0.000;0.000;2022-09-13T14:51:20;23.60;72.70
47414;DHT22;33163;0.000;0.000;2022-09-13T14:53:52;23.60;72.70
47414;DHT22;33163;0.000;0.000;2022-09-13T14:56:28;23.60;72.60
47414;DHT22;33163;0.000;0.000;2022-09-13T14:58:58;23.60;72.60
47414;DHT22;33163;0.000;0.000;2022-09-13T15:01:27;23.60;72.40
47414;DHT22;33163;0.000;0.000;2022-09-13T15:03:56;23.50;72.10
47414;DHT22;33163;0.000;0.000;2022-09-13T15:06:29;23.50;72.10
47414;DHT22;33163;0.000;0.000;2022-09-13T15:09:00;23.50;72.10
47414;DHT22;33163;0.000;0.000;2022-09-13T15:11:53;23.50;72.10
47414;DHT22;33163;0.000;0.000;2022-09-13T15:14:24;23.50;72.00
47414;DHT22;33163;0.000;0.000;2022-09-13T15:16:53;23.50;72.10
47414;DHT22;33163;0.000;0.000;2022-09-13T15:19:46;23.50;72.00
47414;DHT22;33163;0.000;0.000;2022-09-13T15:22:18;23.50;71.70
47414;DHT22;33163;0.000;0.000;2022-09-13T15:24:49;23.50;71.90
47414;DHT22;33163;0.000;0.000;2022-09-13T15:27:19;23.50;71.90
47414;DHT22;33163;0.000;0.000;2022-09-13T15:29:48;23.50;72.00
47414;DHT22;33163;0.000;0.000;2022-09-13T15:32:20;23.50;71.90
47414;DHT22;33163;0.000;0.000;2022-09-13T15:34:48;23.50;71.90
47414;DHT22;33163;0.000;0.000;2022-09-13T15:37:14;23.40;71.80
47414;DHT22;33163;0.000;0.000;2022-09-13T15:39:43;23.40;71.70
47414;DHT22;33163;0.000;0.000;2022-09-13T15:42:11;23.40;71.70
47414;DHT22;33163;0.000;0.000;2022-09-13T15:44:38;23.40;71.60
47414;DHT22;33163;0.000;0.000;2022-09-13T15:47:09;23.40;71.80
47414;DHT22;33163;0.000;0.000;2022-09-13T15:49:37;23.40;71.10
47414;DHT22;33163;0.000;0.000;2022-09-13T15:52:05;23.40;69.60
47414;DHT22;33163;0.000;0.000;2022-09-13T15:54:35;23.40;67.80
47414;DHT22;33163;0.000;0.000;2022-09-13T15:57:05;23.30;67.40
47414;DHT22;33163;0.000;0.000;2022-09-13T15:59:35;23.30;66.90
47414;DHT22;33163;0.000;0.000;2022-09-13T16:02:15;23.20;66.30
47414;DHT22;33163;0.000;0.000;2022-09-13T16:04:42;23.20;65.70
47414;DHT22;33163;0.000;0.000;2022-09-13T16:07:09;23.10;65.00
47414;DHT22;33163;0.000;0.000;2022-09-13T16:09:37;23.10;65.60
47414;DHT22;33163;0.000;0.000;2022-09-13T16:12:04;23.00;65.10
47414;DHT22;33163;0.000;0.000;2022-09-13T16:14:31;23.00;65.20
47414;DHT22;33163;0.000;0.000;2022-09-13T16:17:00;23.00;65.40
47414;DHT22;33163;0.000;0.000;2022-09-13T16:19:29;23.00;65.70
47414;DHT22;33163;0.000;0.000;2022-09-13T16:21:55;23.00;65.60
47414;DHT22;33163;0.000;0.000;2022-09-13T16:24:23;23.00;64.90
47414;DHT22;33163;0.000;0.000;2022-09-13T16:26:49;23.00;64.90
47414;DHT22;33163;0.000;0.000;2022-09-13T16:29:16;22.90;64.90
47414;DHT22;33163;0.000;0.000;2022-09-13T16:31:43;22.90;64.80
47414;DHT22;33163;0.000;0.000;2022-09-13T16:34:11;22.90;64.70
47414;DHT22;33163;0.000;0.000;2022-09-13T16:36:38;22.80;64.30
47414;DHT22;33163;0.000;0.000;2022-09-13T16:39:04;22.80;64.50
47414;DHT22;33163;0.000;0.000;2022-09-13T16:41:31;22.80;64.60
47414;DHT22;33163;0.000;0.000;2022-09-13T16:43:58;22.80;64.90
47414;DHT22;33163;0.000;0.000;2022-09-13T16:46:26;22.70;64.50
47414;DHT22;33163;0.000;0.000;2022-09-13T16:48:53;22.70;64.40
47414;DHT22;33163;0.000;0.000;2022-09-13T16:51:22;22.60;64.10
47414;DHT22;33163;0.000;0.000;2022-09-13T16:53:51;22.60;64.20